Time;durP1;ratioP1;P1;durP2;ratioP2;P2;SDS_P1;SDS_P2;PMS_P1;PMS_P2;Temp;Humidity;BMP_temperature;BMP_pressure;BME280_temperature;BME280_humidity;BME280_pressure;Samples;Min_cycle;Max_cycle;Signal;HPM_P1;HPM_P2
2023/05/01 00:00:54;;;;;;;7.47;5.63;;;8.20;99.90;;;;;;4995540;28;20108;-60
2023/05/01 00:03:20;;;;;;;9.73;6.07;;;8.20;99.90;;;;;;4995275;28;20039;-60
2023/05/01 00:05:46;;;;;;;11.93;5.97;;;8.60;99.90;;;;;;4995228;28;20055;-59
2023/05/01 00:08:12;;;;;;;11.40;6.30;;;8.40;99.90;;;;;;4995293;28;20125;-60
2023/05/01 00:10:38;;;;;;;8.90;5.78;;;8.00;99.90;;;;;;4995526;28;20079;-59
2023/05/01 00:13:04;;;;;;;10.32;5.78;;;8.20;99.90;;;;;;4995021;28;20046;-60
2023/05/01 00:15:30;;;;;;;;;;;8.10;99.90;;;;;;4995449;28;20062;-61
2023/05/01 00:17:57;;;;;;;11.57;6.00;;;8.10;99.90;;;;;;5009853;28;19922;-60
2023/05/01 00:20:28;;;;;;;10.90;6.03;;;8.00;99.90;;;;;;4995020;28;20076;-60
2023/05/01 00:22:54;;;;;;;9.60;6.10;;;8.10;99.90;;;;;;4995423;28;20078;-61
2023/05/01 00:25:20;;;;;;;11.80;6.28;;;8.20;99.90;;;;;;4994901;28;20086;-62
2023/05/01 00:27:47;;;;;;;10.85;6.40;;;8.10;99.90;;;;;;4995595;28;20043;-60
2023/05/01 00:30:13;;;;;;;14.32;6.70;;;8.30;99.90;;;;;;4995530;28;20046;-60
2023/05/01 00:32:38;;;;;;;10.00;6.30;;;8.00;99.90;;;;;;4995507;28;20042;-60
2023/05/01 00:35:04;;;;;;;11.75;6.47;;;8.60;99.90;;;;;;4994685;28;20455;-61
2023/05/01 00:37:30;;;;;;;11.55;6.25;;;8.10;99.90;;;;;;4994721;28;20046;-60
2023/05/01 00:39:56;;;;;;;11.13;5.75;;;7.60;99.90;;;;;;4995283;28;20086;-61
2023/05/01 00:42:21;;;;;;;14.35;7.55;;;8.10;99.90;;;;;;4995060;28;20049;-60
2023/05/01 00:44:47;;;;;;;11.00;6.22;;;8.10;99.90;;;;;;4994387;28;20085;-60
2023/05/01 00:47:13;;;;;;;12.57;5.80;;;8.00;99.90;;;;;;4994935;28;20054;-60
2023/05/01 00:49:41;;;;;;;16.15;7.30;;;7.80;99.90;;;;;;4994469;28;20050;-60
2023/05/01 00:52:08;;;;;;;17.20;6.93;;;8.70;99.90;;;;;;4994358;28;20049;-64
2023/05/01 00:54:37;;;;;;;10.02;6.60;;;8.00;99.90;;;;;;4994420;28;20054;-62
2023/05/01 00:57:05;;;;;;;12.40;6.10;;;7.70;99.90;;;;;;4994315;28;20469;-60
2023/05/01 00:59:31;;;;;;;9.50;6.38;;;7.90;99.90;;;;;;4994918;28;20054;-60
2023/05/01 01:01:57;;;;;;;11.82;6.38;;;8.50;99.90;;;;;;4994302;28;20455;-60
2023/05/01 01:04:22;;;;;;;10.30;6.50;;;7.80;99.90;;;;;;4993914;28;20498;-60
2023/05/01 01:06:57;;;;;;;10.25;6.07;;;7.90;99.90;;;;;;4994201;28;20054;-60
2023/05/01 01:09:47;;;;;;;11.30;6.40;;;7.60;99.90;;;;;;4994346;28;20313;-60
2023/05/01 01:12:53;;;;;;;11.27;6.63;;;7.60;99.90;;;;;;4994269;28;20432;-60
2023/05/01 01:15:26;;;;;;;14.50;7.22;;;7.60;99.90;;;;;;4993960;28;20433;-60
2023/05/01 01:17:57;;;;;;;13.05;6.60;;;7.40;99.90;;;;;;4994618;28;20058;-60
2023/05/01 01:20:30;;;;;;;9.98;6.60;;;7.90;99.90;;;;;;4994012;28;20047;-62
2023/05/01 01:23:21;;;;;;;11.10;6.38;;;7.70;99.90;;;;;;4994759;28;20434;-60
2023/05/01 01:26:12;;;;;;;10.40;6.30;;;7.40;99.90;;;;;;4993948;28;20390;-60
2023/05/01 01:29:10;;;;;;;14.32;6.80;;;7.40;99.90;;;;;;4993974;28;20046;-60
2023/05/01 01:31:52;;;;;;;13.02;6.65;;;7.40;99.90;;;;;;4993840;28;20042;-60
2023/05/01 01:34:26;;;;;;;12.95;6.80;;;7.40;99.90;;;;;;4994146;28;20065;-60
2023/05/01 01:37:12;;;;;;;12.35;6.65;;;7.90;99.90;;;;;;4993923;28;20086;-61
2023/05/01 01:40:10;;;;;;;11.30;6.95;;;7.40;99.90;;;;;;4987120;28;20067;-60
2023/05/01 01:42:39;;;;;;;;;;;7.20;99.90;;;;;;4990934;28;20518;-60
2023/05/01 01:45:11;;;;;;;13.65;6.55;;;7.30;99.90;;;;;;4993780;28;20359;-61
2023/05/01 01:47:40;;;;;;;11.80;6.88;;;7.50;99.90;;;;;;4993858;28;20089;-60
2023/05/01 01:50:08;;;;;;;12.13;6.80;;;7.60;99.90;;;;;;4994571;28;20433;-61
2023/05/01 01:52:36;;;;;;;11.70;6.85;;;7.10;99.90;;;;;;4993683;28;20136;-60
2023/05/01 01:55:06;;;;;;;10.52;6.88;;;7.70;99.90;;;;;;4992723;28;20054;-61
2023/05/01 01:57:33;;;;;;;10.93;6.68;;;7.20;99.90;;;;;;4993764;28;20121;-60
2023/05/01 01:59:59;;;;;;;10.02;6.60;;;8.30;99.90;;;;;;4993970;28;20553;-60
2023/05/01 02:02:26;;;;;;;12.65;7.30;;;8.30;99.90;;;;;;4993663;28;20073;-60
2023/05/01 02:04:55;;;;;;;11.68;7.28;;;6.90;99.90;;;;;;4993615;28;20133;-60
2023/05/01 02:07:22;;;;;;;10.23;6.90;;;7.30;99.90;;;;;;4993547;28;20061;-60
2023/05/01 02:09:50;;;;;;;11.88;7.32;;;7.20;99.90;;;;;;4992330;28;20042;-60
2023/05/01 02:12:18;;;;;;;11.05;7.20;;;7.60;99.90;;;;;;4993380;28;20049;-61
2023/05/01 02:14:46;;;;;;;13.93;6.78;;;7.20;99.90;;;;;;4993297;28;20066;-60
2023/05/01 02:17:14;;;;;;;13.90;6.47;;;7.00;99.90;;;;;;4994059;28;20113;-60
2023/05/01 02:19:42;;;;;;;11.38;7.28;;;7.30;99.90;;;;;;4993180;28;20498;-60
2023/05/01 02:22:09;;;;;;;10.05;6.50;;;8.20;99.90;;;;;;4997108;28;20101;-60
2023/05/01 02:24:37;;;;;;;12.32;7.57;;;7.40;99.90;;;;;;4997640;28;20050;-62
2023/05/01 02:27:21;;;;;;;13.25;7.45;;;7.10;99.90;;;;;;4997157;28;20054;-60
2023/05/01 02:29:46;;;;;;;12.10;6.85;;;7.40;99.90;;;;;;4997116;28;20125;-60
2023/05/01 02:32:12;;;;;;;11.45;6.78;;;7.40;99.90;;;;;;4996936;28;20129;-62
2023/05/01 02:34:38;;;;;;;10.60;7.13;;;7.20;99.90;;;;;;4996693;28;20055;-60
2023/05/01 02:37:06;;;;;;;13.07;7.07;;;7.20;99.90;;;;;;4996965;28;20137;-60
2023/05/01 02:39:32;;;;;;;13.40;7.18;;;7.10;99.90;;;;;;4996543;28;20499;-60
2023/05/01 02:42:02;;;;;;;14.85;6.93;;;7.50;99.90;;;;;;4996838;28;20049;-61
2023/05/01 02:44:31;;;;;;;11.32;6.85;;;7.30;99.90;;;;;;4996872;28;20447;-60
2023/05/01 02:46:59;;;;;;;12.23;7.32;;;7.30;99.90;;;;;;4996470;28;20487;-60
2023/05/01 02:49:26;;;;;;;9.95;6.80;;;7.40;99.90;;;;;;4995774;28;20053;-60
2023/05/01 02:51:52;;;;;;;16.50;7.18;;;7.00;99.90;;;;;;4996852;28;20183;-60
2023/05/01 02:54:19;;;;;;;11.38;7.13;;;7.00;99.90;;;;;;4996570;28;20047;-61
2023/05/01 02:56:45;;;;;;;13.00;7.00;;;7.30;99.90;;;;;;4997507;28;20129;-60
2023/05/01 02:59:11;;;;;;;11.13;7.68;;;7.00;99.90;;;;;;4996512;28;20537;-61
2023/05/01 03:01:37;;;;;;;14.00;7.20;;;6.80;99.90;;;;;;4996541;28;20100;-60
2023/05/01 03:04:03;;;;;;;;;;;7.20;99.90;;;;;;4996898;28;20125;-60
2023/05/01 03:06:29;;;;;;;9.52;6.53;;;7.00;99.90;;;;;;4996443;28;20092;-60
2023/05/01 03:08:55;;;;;;;10.40;6.25;;;7.20;99.90;;;;;;4996334;28;20134;-60
2023/05/01 03:11:23;;;;;;;12.52;7.70;;;7.20;99.90;;;;;;4996753;28;20136;-61
2023/05/01 03:13:48;;;;;;;13.00;6.57;;;7.50;99.90;;;;;;4995957;28;20621;-60
2023/05/01 03:16:14;;;;;;;12.50;7.07;;;6.80;99.90;;;;;;4996003;28;20137;-60
2023/05/01 03:18:39;;;;;;;14.93;7.43;;;7.30;99.90;;;;;;4996236;28;20050;-62
2023/05/01 03:21:05;;;;;;;15.18;7.65;;;7.00;99.90;;;;;;4995865;28;20402;-60
2023/05/01 03:23:31;;;;;;;13.93;7.85;;;6.80;99.90;;;;;;4996038;28;20449;-61
2023/05/01 03:25:56;;;;;;;13.70;7.28;;;6.90;99.90;;;;;;4996090;28;20140;-61
2023/05/01 03:28:22;;;;;;;15.32;8.00;;;6.90;99.90;;;;;;4996032;28;20046;-60
2023/05/01 03:30:50;;;;;;;10.95;7.30;;;6.70;99.90;;;;;;4996032;28;20096;-60
2023/05/01 03:33:16;;;;;;;11.48;7.00;;;7.10;99.90;;;;;;4995777;28;20042;-60
2023/05/01 03:35:41;;;;;;;12.25;7.40;;;7.20;99.90;;;;;;4996441;28;20050;-60
2023/05/01 03:38:07;;;;;;;12.75;7.13;;;6.70;99.90;;;;;;4995849;28;20478;-61
2023/05/01 03:40:33;;;;;;;10.65;7.43;;;6.50;99.90;;;;;;4995497;28;20049;-60
2023/05/01 03:42:58;;;;;;;9.75;7.15;;;7.50;99.90;;;;;;4996014;28;20133;-60
2023/05/01 03:45:25;;;;;;;9.85;6.97;;;;;;;;;;4995934;28;20050;-60
2023/05/01 03:47:51;;;;;;;11.20;6.93;;;6.60;99.90;;;;;;4996179;28;20065;-60
2023/05/01 03:50:16;;;;;;;13.98;7.35;;;6.90;99.90;;;;;;4995636;28;20439;-63
2023/05/01 03:52:42;;;;;;;16.15;7.07;;;6.80;99.90;;;;;;4995757;28;20233;-61
2023/05/01 03:55:08;;;;;;;12.88;6.80;;;6.70;99.90;;;;;;4995757;28;20128;-60
2023/05/01 03:57:34;;;;;;;13.23;7.80;;;6.60;99.90;;;;;;4995538;28;20046;-60
2023/05/01 03:59:59;;;;;;;11.50;7.35;;;6.60;99.90;;;;;;4995699;28;20430;-60
2023/05/01 04:02:26;;;;;;;12.85;7.32;;;6.30;99.90;;;;;;4995793;28;20046;-60
2023/05/01 04:04:52;;;;;;;13.25;7.40;;;6.40;99.90;;;;;;4995327;28;20151;-61
2023/05/01 04:07:17;;;;;;;12.27;7.50;;;6.60;99.90;;;;;;4995226;28;20097;-61
2023/05/01 04:09:43;;;;;;;12.60;7.10;;;6.50;99.90;;;;;;4995168;28;20164;-60
2023/05/01 04:12:09;;;;;;;13.60;7.32;;;6.20;99.90;;;;;;4995319;28;20173;-60
2023/05/01 04:14:34;;;;;;;17.15;7.75;;;7.10;99.90;;;;;;4994939;28;20505;-60
2023/05/01 04:17:00;;;;;;;16.73;7.88;;;6.60;99.90;;;;;;4994834;28;20054;-60
2023/05/01 04:19:26;;;;;;;12.20;7.38;;;6.50;99.90;;;;;;4995102;28;20058;-60
2023/05/01 04:21:53;;;;;;;12.80;7.72;;;6.30;99.90;;;;;;4994960;28;20057;-60
2023/05/01 04:24:18;;;;;;;14.02;7.88;;;6.40;99.90;;;;;;4994991;28;20057;-60
2023/05/01 04:26:44;;;;;;;16.20;8.32;;;6.20;99.90;;;;;;4994873;28;20120;-61
2023/05/01 04:29:10;;;;;;;17.23;8.02;;;7.60;99.90;;;;;;4994905;28;20101;-60
2023/05/01 04:31:36;;;;;;;13.75;8.07;;;6.20;99.90;;;;;;4994720;28;20109;-60
2023/05/01 04:34:01;;;;;;;16.92;9.48;;;6.60;99.90;;;;;;4978088;28;20077;-60
2023/05/01 04:36:28;;;;;;;13.32;8.02;;;6.00;99.90;;;;;;4995197;28;20081;-60
2023/05/01 04:38:54;;;;;;;13.05;8.55;;;6.30;99.90;;;;;;4994692;28;20053;-60
2023/05/01 04:41:20;;;;;;;16.10;8.20;;;6.10;99.90;;;;;;4995160;28;20050;-60
2023/05/01 04:43:46;;;;;;;15.13;7.85;;;6.40;99.90;;;;;;4993984;28;20043;-60
2023/05/01 04:46:11;;;;;;;15.20;8.43;;;6.10;99.90;;;;;;4994531;28;20054;-60
2023/05/01 04:48:37;;;;;;;15.85;8.13;;;6.60;99.90;;;;;;4995265;28;20156;-61
2023/05/01 04:51:03;;;;;;;13.38;8.13;;;6.50;99.90;;;;;;4994429;28;20046;-60
2023/05/01 04:53:28;;;;;;;16.27;8.68;;;6.40;99.90;;;;;;4993092;28;20042;-61
2023/05/01 04:55:54;;;;;;;15.05;8.38;;;6.80;99.90;;;;;;4994620;28;20048;-60
2023/05/01 04:58:20;;;;;;;14.50;8.35;;;6.50;99.90;;;;;;4994927;28;20532;-60
2023/05/01 05:00:45;;;;;;;15.73;8.98;;;6.70;99.90;;;;;;4994658;28;20069;-61
2023/05/01 05:03:11;;;;;;;18.17;8.98;;;7.60;99.90;;;;;;4992864;28;20051;-61
2023/05/01 05:05:37;;;;;;;14.30;8.43;;;6.70;99.90;;;;;;4994546;28;20046;-61
2023/05/01 05:08:03;;;;;;;15.32;8.93;;;6.60;99.90;;;;;;4994182;28;20468;-61
2023/05/01 05:10:28;;;;;;;17.08;9.07;;;6.80;99.90;;;;;;4994133;28;20044;-60
2023/05/01 05:12:54;;;;;;;14.55;8.45;;;6.80;99.90;;;;;;4993991;28;20050;-60
2023/05/01 05:15:20;;;;;;;15.57;8.82;;;7.10;99.90;;;;;;4993807;28;20578;-60
2023/05/01 05:17:46;;;;;;;15.65;8.85;;;7.00;99.90;;;;;;4994082;28;20539;-60
2023/05/01 05:20:11;;;;;;;19.42;9.23;;;7.20;99.90;;;;;;4994307;28;20050;-61
2023/05/01 05:22:37;;;;;;;20.88;8.85;;;6.90;99.90;;;;;;4994729;28;20117;-60
2023/05/01 05:25:05;;;;;;;14.95;8.65;;;7.10;99.90;;;;;;4994019;28;20532;-60
2023/05/01 05:27:36;;;;;;;13.20;8.88;;;7.40;99.90;;;;;;4994015;28;20054;-60
2023/05/01 05:30:04;;;;;;;15.05;9.23;;;7.40;99.90;;;;;;4994181;28;20483;-60
2023/05/01 05:32:30;;;;;;;16.35;9.02;;;7.30;99.90;;;;;;4994056;28;20483;-60
2023/05/01 05:34:55;;;;;;;16.73;9.90;;;7.30;99.90;;;;;;4994424;28;20051;-60
2023/05/01 05:37:21;;;;;;;16.30;9.30;;;7.10;99.90;;;;;;4994386;28;20054;-60
2023/05/01 05:39:47;;;;;;;19.55;8.80;;;7.30;99.90;;;;;;4992835;28;20400;-60
2023/05/01 05:42:13;;;;;;;16.63;9.32;;;7.30;99.90;;;;;;4994598;28;20042;-61
2023/05/01 05:44:39;;;;;;;14.45;8.85;;;7.50;99.90;;;;;;4993918;28;20445;-60
2023/05/01 05:47:05;;;;;;;16.95;8.77;;;7.70;99.90;;;;;;4993798;28;20446;-60
2023/05/01 05:49:30;;;;;;;16.60;9.15;;;7.30;99.90;;;;;;4994333;28;20077;-60
2023/05/01 05:51:56;;;;;;;13.95;8.60;;;7.80;99.90;;;;;;4993658;28;20046;-59
2023/05/01 05:54:22;;;;;;;14.30;9.45;;;8.00;99.90;;;;;;4993967;28;20044;-59
2023/05/01 05:56:47;;;;;;;16.10;9.05;;;7.60;99.90;;;;;;4997414;28;20127;-60
2023/05/01 05:59:13;;;;;;;14.65;8.70;;;8.10;99.90;;;;;;4996339;28;20057;-60
2023/05/01 06:01:39;;;;;;;15.45;7.90;;;8.70;99.90;;;;;;4997496;28;20046;-61
2023/05/01 06:04:05;;;;;;;16.17;8.60;;;8.30;99.90;;;;;;4998062;28;20505;-60
2023/05/01 06:06:33;;;;;;;17.25;8.95;;;8.20;99.90;;;;;;4997299;28;20119;-60
2023/05/01 06:08:59;;;;;;;15.05;8.73;;;8.10;99.90;;;;;;4997926;28;20053;-61
2023/05/01 06:11:25;;;;;;;20.00;9.10;;;8.20;99.90;;;;;;4997336;28;20053;-60
2023/05/01 06:13:51;;;;;;;;;;;8.30;99.90;;;;;;4997528;28;20054;-60
2023/05/01 06:16:17;;;;;;;15.38;8.43;;;8.30;99.90;;;;;;4997356;28;19929;-60
2023/05/01 06:18:43;;;;;;;15.65;9.15;;;8.60;99.90;;;;;;4997257;28;20487;-59
2023/05/01 06:21:08;;;;;;;16.10;8.90;;;8.60;99.90;;;;;;4997632;28;20050;-61
2023/05/01 06:23:34;;;;;;;18.73;10.00;;;8.90;99.90;;;;;;4996953;28;20112;-61
2023/05/01 06:26:00;;;;;;;16.15;8.40;;;8.50;99.90;;;;;;4997166;28;20129;-61
2023/05/01 06:28:25;;;;;;;16.02;8.45;;;9.00;99.90;;;;;;4997073;28;20051;-60
2023/05/01 06:30:51;;;;;;;13.38;8.85;;;9.00;99.90;;;;;;4996983;28;20046;-61
2023/05/01 06:33:17;;;;;;;16.58;9.35;;;9.50;99.90;;;;;;4996876;28;20042;-60
2023/05/01 06:35:42;;;;;;;15.65;8.68;;;9.10;99.90;;;;;;4997183;28;20490;-61
2023/05/01 06:38:08;;;;;;;14.70;8.70;;;9.60;99.90;;;;;;4996707;28;20050;-61
2023/05/01 06:40:34;;;;;;;14.00;8.57;;;9.40;99.90;;;;;;4996831;28;20050;-61
2023/05/01 06:43:03;;;;;;;17.30;8.77;;;9.50;99.90;;;;;;4996802;28;20053;-62
2023/05/01 06:45:29;;;;;;;19.35;8.60;;;9.90;99.90;;;;;;4996792;28;20124;-62
2023/05/01 06:47:54;;;;;;;16.23;8.65;;;10.00;99.90;;;;;;4996758;28;20145;-62
2023/05/01 06:50:20;;;;;;;13.23;8.48;;;10.30;99.90;;;;;;4996597;28;20386;-61
2023/05/01 06:52:46;;;;;;;12.63;8.88;;;10.40;99.90;;;;;;4997052;28;20133;-61
2023/05/01 06:55:11;;;;;;;17.45;8.57;;;10.10;99.90;;;;;;4996583;28;20137;-63
2023/05/01 07:02:45;;;;;;;17.77;8.57;;;10.90;99.90;;;;;;5129967;27;20394;-63
2023/05/01 07:05:11;;;;;;;15.65;8.10;;;10.70;99.90;;;;;;5129604;27;20057;-62
2023/05/01 07:07:37;;;;;;;19.02;8.70;;;10.90;99.90;;;;;;5127674;27;20047;-68
2023/05/01 07:10:02;;;;;;;12.45;7.97;;;11.20;99.90;;;;;;5124592;27;20050;-65
2023/05/01 07:12:28;;;;;;;14.85;8.18;;;11.20;99.90;;;;;;5128784;27;20481;-63
2023/05/01 07:14:55;;;;;;;14.95;8.50;;;10.90;99.90;;;;;;5129704;27;20099;-66
2023/05/01 07:17:21;;;;;;;17.02;7.88;;;11.10;99.90;;;;;;5129563;27;20079;-63
2023/05/01 07:19:48;;;;;;;14.43;8.63;;;11.40;99.90;;;;;;5128955;27;20045;-63
2023/05/01 07:22:14;;;;;;;15.75;8.30;;;11.70;99.90;;;;;;5129042;27;20048;-63
2023/05/01 07:24:40;;;;;;;12.23;8.13;;;11.60;99.90;;;;;;5129045;27;20549;-64
2023/05/01 07:27:06;;;;;;;13.98;7.88;;;11.70;99.90;;;;;;5129037;27;20055;-63
2023/05/01 07:29:32;;;;;;;13.73;7.25;;;11.90;99.90;;;;;;5128640;27;20042;-62
2023/05/01 07:31:58;;;;;;;14.93;7.88;;;11.80;99.90;;;;;;5129516;27;20080;-62
2023/05/01 07:34:24;;;;;;;;;;;11.90;99.90;;;;;;5129737;27;20055;-65
2023/05/01 07:36:49;;;;;;;11.52;6.25;;;12.10;99.90;;;;;;5128309;27;19951;-65
2023/05/01 07:39:16;;;;;;;10.93;5.50;;;12.10;99.90;;;;;;5127643;28;20104;-63
2023/05/01 07:41:42;;;;;;;15.88;6.55;;;12.40;99.90;;;;;;5129094;27;20499;-62
2023/05/01 07:44:08;;;;;;;14.52;6.80;;;12.30;99.90;;;;;;5128769;27;20118;-62
2023/05/01 07:46:35;;;;;;;11.48;6.60;;;12.60;99.90;;;;;;5127594;28;20487;-62
2023/05/01 07:49:00;;;;;;;21.92;7.80;;;12.60;99.90;;;;;;5129102;27;20122;-63
2023/05/01 07:51:26;;;;;;;12.85;6.35;;;12.60;99.90;;;;;;5128138;27;20530;-63
2023/05/01 07:53:52;;;;;;;15.75;7.57;;;12.60;99.90;;;;;;5128201;27;20058;-63
2023/05/01 07:56:17;;;;;;;11.15;6.32;;;12.60;99.90;;;;;;5128482;27;20035;-62
2023/05/01 07:58:43;;;;;;;13.60;6.47;;;12.90;99.90;;;;;;5127914;27;20039;-64
2023/05/01 08:01:09;;;;;;;14.68;6.22;;;13.00;99.90;;;;;;5128458;27;20181;-62
2023/05/01 08:03:35;;;;;;;9.75;6.20;;;13.00;99.90;;;;;;5127169;27;20048;-64
2023/05/01 08:06:00;;;;;;;14.45;7.00;;;13.20;99.90;;;;;;5127674;27;20126;-63
2023/05/01 08:08:26;;;;;;;11.30;6.90;;;13.60;99.90;;;;;;5127838;27;20051;-67
2023/05/01 08:10:52;;;;;;;11.85;6.57;;;13.30;99.90;;;;;;5128039;27;20383;-64
2023/05/01 08:13:17;;;;;;;12.55;6.20;;;13.60;99.90;;;;;;5118363;27;20130;-64
2023/05/01 08:15:46;;;;;;;10.50;6.78;;;13.80;99.90;;;;;;5114785;28;20101;-63
2023/05/01 08:18:18;;;;;;;14.80;6.50;;;13.30;99.90;;;;;;5114278;28;20375;-64
2023/05/01 08:20:45;;;;;;;14.70;6.35;;;13.90;99.90;;;;;;5110954;28;20109;-63
2023/05/01 08:23:11;;;;;;;15.02;7.05;;;13.70;99.90;;;;;;5113241;28;20044;-63
2023/05/01 08:25:36;;;;;;;10.25;6.35;;;14.40;99.90;;;;;;5112028;28;20046;-71
2023/05/01 08:28:02;;;;;;;11.65;5.80;;;14.40;99.90;;;;;;5111096;28;20047;-64
2023/05/01 08:30:30;;;;;;;9.48;5.50;;;14.10;99.90;;;;;;5110997;28;20046;-63
2023/05/01 08:32:56;;;;;;;11.75;4.97;;;14.20;99.90;;;;;;5111685;28;20043;-62
2023/05/01 08:35:21;;;;;;;13.88;6.20;;;14.50;99.90;;;;;;5112588;28;20051;-63
2023/05/01 08:37:47;;;;;;;12.20;6.05;;;14.70;99.90;;;;;;5113285;28;20130;-66
2023/05/01 08:40:14;;;;;;;10.02;5.47;;;14.60;99.90;;;;;;5114123;28;20509;-64
2023/05/01 08:42:40;;;;;;;16.73;6.60;;;14.50;99.90;;;;;;5113914;28;20054;-64
2023/05/01 08:45:10;;;;;;;13.60;6.53;;;14.50;99.90;;;;;;5114105;28;20080;-69
2023/05/01 08:47:38;;;;;;;13.50;6.15;;;14.70;99.90;;;;;;5113616;28;20052;-63
2023/05/01 08:50:08;;;;;;;15.27;7.03;;;14.70;99.90;;;;;;5114136;28;20054;-64
2023/05/01 08:52:35;;;;;;;8.85;5.13;;;14.70;99.90;;;;;;5113519;28;20491;-68
2023/05/01 08:55:02;;;;;;;10.55;5.55;;;14.90;99.90;;;;;;5113386;28;20544;-63
2023/05/01 08:57:30;;;;;;;12.90;6.35;;;14.70;99.90;;;;;;5113913;28;20075;-63
2023/05/01 08:59:57;;;;;;;10.57;5.00;;;14.80;99.90;;;;;;5112781;28;20058;-67
2023/05/01 09:02:23;;;;;;;12.43;5.15;;;14.80;99.90;;;;;;5113317;28;20052;-63
2023/05/01 09:04:50;;;;;;;15.65;5.82;;;12.40;99.90;;;;;;5113978;28;20055;-64
2023/05/01 09:07:16;;;;;;;7.72;4.95;;;15.10;99.90;;;;;;5113543;27;20169;-66
2023/05/01 09:09:42;;;;;;;9.23;5.20;;;15.10;99.90;;;;;;5113200;28;20074;-63
2023/05/01 09:12:20;;;;;;;;;;;15.10;99.90;;;;;;5114110;28;20035;-63
2023/05/01 09:14:46;;;;;;;8.23;5.18;;;15.20;99.90;;;;;;5113388;28;19934;-65
2023/05/01 09:17:13;;;;;;;12.45;5.97;;;15.00;99.90;;;;;;5112968;28;20047;-63
2023/05/01 09:19:39;;;;;;;10.95;4.32;;;15.40;99.90;;;;;;5113516;28;20391;-63
2023/05/01 09:22:06;;;;;;;7.90;4.82;;;15.50;99.90;;;;;;5113080;28;20793;-67
2023/05/01 09:24:32;;;;;;;8.00;3.92;;;15.60;99.90;;;;;;5111900;28;20047;-63
2023/05/01 09:26:58;;;;;;;;;;;15.50;99.90;;;;;;5113835;28;20043;-63
2023/05/01 09:29:43;;;;;;;10.23;5.47;;;15.30;99.90;;;;;;5112896;27;19945;-63
2023/05/01 09:32:28;;;;;;;7.25;3.60;;;15.60;99.90;;;;;;5113041;28;20036;-63
2023/05/01 09:34:55;;;;;;;8.30;4.78;;;15.80;99.90;;;;;;5093591;28;20078;-62
2023/05/01 09:37:28;;;;;;;6.28;3.70;;;15.80;99.90;;;;;;5113193;28;20494;-64
2023/05/01 09:40:04;;;;;;;8.77;2.95;;;15.80;99.90;;;;;;5113032;28;20090;-63
2023/05/01 09:42:33;;;;;;;6.53;2.90;;;16.10;99.90;;;;;;5111243;28;20054;-63
2023/05/01 09:45:00;;;;;;;5.22;3.20;;;16.20;99.90;;;;;;5110033;28;20681;-64
2023/05/01 09:47:27;;;;;;;7.07;3.35;;;16.50;99.90;;;;;;5111689;28;20052;-64
2023/05/01 09:49:55;;;;;;;6.45;3.35;;;16.50;99.90;;;;;;5112299;28;20040;-64
2023/05/01 09:52:24;;;;;;;5.07;2.50;;;16.60;99.90;;;;;;5112601;28;20134;-64
2023/05/01 09:54:50;;;;;;;8.68;3.60;;;16.20;99.90;;;;;;5112889;28;20130;-63
2023/05/01 09:57:16;;;;;;;;;;;16.50;99.90;;;;;;5113340;28;20054;-64
2023/05/01 09:59:41;;;;;;;6.30;2.55;;;16.90;99.90;;;;;;5112734;28;19924;-63
2023/05/01 10:02:26;;;;;;;;;;;16.50;99.90;;;;;;5113142;28;20052;-64
2023/05/01 10:04:58;;;;;;;7.65;3.88;;;16.70;99.90;;;;;;5112749;28;20398;-63
2023/05/01 10:07:23;;;;;;;5.18;3.05;;;17.30;99.90;;;;;;5112503;28;20048;-63
2023/05/01 10:09:50;;;;;;;;;;;17.40;99.90;;;;;;5113163;28;20040;-63
2023/05/01 10:12:25;;;;;;;10.65;4.10;;;17.20;99.90;;;;;;5112785;28;20365;-63
2023/05/01 10:14:56;;;;;;;5.60;2.97;;;17.40;99.90;;;;;;5112804;28;20494;-64
2023/05/01 10:17:22;;;;;;;8.88;3.60;;;17.40;99.90;;;;;;5111256;28;20108;-63
2023/05/01 10:19:50;;;;;;;7.90;3.30;;;17.90;99.90;;;;;;5112530;28;20047;-65
2023/05/01 10:22:16;;;;;;;9.00;3.00;;;17.70;99.90;;;;;;5112068;28;20513;-64
2023/05/01 10:24:44;;;;;;;3.53;2.67;;;17.80;99.90;;;;;;5112288;28;20500;-64
2023/05/01 10:27:12;;;;;;;8.35;3.58;;;18.00;99.90;;;;;;5112616;28;20122;-63
2023/05/01 10:29:41;;;;;;;6.20;3.30;;;17.60;99.90;;;;;;5112353;28;20134;-63
2023/05/01 10:32:08;;;;;;;8.52;3.20;;;17.80;99.90;;;;;;5112533;28;20097;-65
2023/05/01 10:34:37;;;;;;;7.00;2.90;;;17.60;99.90;;;;;;5112142;28;20055;-65
2023/05/01 10:37:18;;;;;;;6.32;3.08;;;17.70;99.90;;;;;;5111751;28;20384;-63
2023/05/01 10:39:43;;;;;;;5.65;2.67;;;17.80;99.90;;;;;;5112352;28;20508;-63
2023/05/01 10:42:13;;;;;;;5.97;2.45;;;17.60;99.90;;;;;;5112161;28;20044;-64
2023/05/01 10:44:42;;;;;;;7.82;2.97;;;17.70;99.90;;;;;;5112360;28;20143;-63
2023/05/01 10:47:27;;;;;;;7.82;3.20;;;17.60;99.90;;;;;;5112184;28;20053;-63
2023/05/01 10:50:14;;;;;;;8.27;3.25;;;17.90;99.90;;;;;;5111817;28;20120;-68
2023/05/01 10:53:11;;;;;;;6.60;3.00;;;17.60;99.90;;;;;;5105793;28;20081;-62
2023/05/01 10:55:37;;;;;;;4.32;3.00;;;18.30;99.90;;;;;;5111729;28;20103;-63
2023/05/01 10:58:03;;;;;;;6.18;2.97;;;18.30;99.90;;;;;;5111786;28;20475;-63
2023/05/01 11:00:30;;;;;;;6.82;3.70;;;17.90;99.90;;;;;;5110157;28;20558;-63
2023/05/01 11:03:20;;;;;;;4.05;2.67;;;18.10;99.90;;;;;;5111254;28;20055;-66
2023/05/01 11:06:04;;;;;;;8.65;3.25;;;18.20;99.90;;;;;;5110999;28;20138;-64
2023/05/01 11:08:31;;;;;;;6.28;3.15;;;17.90;99.90;;;;;;5110861;28;20082;-63
2023/05/01 11:10:56;;;;;;;6.70;3.10;;;17.50;99.90;;;;;;5111294;28;20415;-69
2023/05/01 11:14:00;;;;;;;7.45;3.38;;;17.50;99.90;;;;;;5111041;28;20050;-64
2023/05/01 11:16:38;;;;;;;5.47;2.55;;;17.40;99.90;;;;;;5111090;28;20048;-63
2023/05/01 11:19:09;;;;;;;4.25;2.85;;;17.40;99.90;;;;;;5111216;28;20055;-63
2023/05/01 11:21:37;;;;;;;7.60;2.30;;;17.30;99.90;;;;;;5110793;28;20376;-62
2023/05/01 11:24:06;;;;;;;3.55;2.00;;;17.30;99.90;;;;;;5111025;28;20126;-64
2023/05/01 11:26:37;;;;;;;6.68;1.90;;;17.70;99.90;;;;;;5111003;28;20061;-65
2023/05/01 11:29:04;;;;;;;7.25;2.60;;;17.40;99.90;;;;;;5110945;28;20043;-63
2023/05/01 11:31:30;;;;;;;4.80;1.80;;;17.50;99.90;;;;;;5110641;28;20047;-62
2023/05/01 11:34:00;;;;;;;6.05;2.00;;;17.50;99.90;;;;;;5110298;28;20433;-62
2023/05/01 11:36:27;;;;;;;8.48;2.55;;;17.60;99.90;;;;;;5110830;28;20464;-63
2023/05/01 11:38:57;;;;;;;5.28;2.20;;;18.00;99.90;;;;;;5110196;28;20043;-64
2023/05/01 11:41:25;;;;;;;4.90;2.53;;;17.40;99.90;;;;;;5109859;28;20040;-63
2023/05/01 11:43:52;;;;;;;3.70;2.47;;;17.90;99.90;;;;;;5110417;28;20491;-63
2023/05/01 11:46:29;;;;;;;5.63;3.05;;;17.90;99.90;;;;;;5110456;28;20093;-68
2023/05/01 11:48:56;;;;;;;6.45;2.83;;;17.70;99.90;;;;;;5112255;28;20062;-64
2023/05/01 11:51:23;;;;;;;5.30;2.55;;;17.90;99.90;;;;;;5114532;28;20046;-63
2023/05/01 11:54:01;;;;;;;5.22;2.65;;;18.10;99.90;;;;;;5114375;28;20471;-62
2023/05/01 11:56:28;;;;;;;6.47;2.85;;;17.90;99.90;;;;;;5114520;28;20039;-62
2023/05/01 11:58:56;;;;;;;6.05;3.45;;;17.80;99.90;;;;;;5114378;28;20444;-63
2023/05/01 12:01:36;;;;;;;7.30;3.22;;;18.00;99.90;;;;;;5113897;28;20063;-62
2023/05/01 12:04:03;;;;;;;6.43;2.95;;;18.10;99.90;;;;;;5113850;28;20097;-62
2023/05/01 12:06:44;;;;;;;6.30;2.78;;;18.20;99.90;;;;;;5114372;28;20134;-64
2023/05/01 12:09:24;;;;;;;7.30;2.83;;;17.90;99.90;;;;;;5114170;28;20406;-62
2023/05/01 12:11:53;;;;;;;6.32;2.85;;;18.00;99.90;;;;;;5114199;28;20391;-64
2023/05/01 12:14:23;;;;;;;7.20;3.80;;;18.00;99.90;;;;;;5113649;28;20047;-63
2023/05/01 12:16:49;;;;;;;9.07;3.80;;;17.90;99.90;;;;;;5114419;28;20058;-63
2023/05/01 12:19:15;;;;;;;6.72;3.20;;;17.90;99.90;;;;;;5113818;28;20381;-70
2023/05/01 12:21:41;;;;;;;8.38;4.13;;;17.90;99.90;;;;;;5114072;28;20112;-63
2023/05/01 12:24:11;;;;;;;5.80;2.88;;;17.70;99.90;;;;;;5113990;28;20514;-67
2023/05/01 12:26:37;;;;;;;11.73;3.70;;;17.30;99.90;;;;;;5114045;28;20059;-63
2023/05/01 12:29:07;;;;;;;6.05;3.30;;;17.70;99.90;;;;;;5113421;28;20035;-65
2023/05/01 12:31:35;;;;;;;7.38;3.10;;;17.40;99.90;;;;;;5114180;28;20047;-63
2023/05/01 12:34:05;;;;;;;7.65;3.30;;;17.90;99.90;;;;;;5113401;28;20048;-62
2023/05/01 12:36:33;;;;;;;11.02;3.40;;;18.60;99.90;;;;;;5113997;28;20203;-63
2023/05/01 12:39:03;;;;;;;5.85;2.97;;;18.10;99.90;;;;;;5113664;27;20047;-63
2023/05/01 12:41:35;;;;;;;6.53;3.13;;;18.50;99.90;;;;;;5112247;28;20047;-62
2023/05/01 12:44:01;;;;;;;9.88;3.63;;;18.60;99.90;;;;;;5111247;28;20398;-63
2023/05/01 12:46:27;;;;;;;8.80;3.30;;;18.70;99.90;;;;;;5111698;28;20108;-63
2023/05/01 12:48:53;;;;;;;11.52;3.05;;;18.80;99.90;;;;;;5113052;27;20487;-64
2023/05/01 12:51:19;;;;;;;7.20;3.30;;;18.80;99.90;;;;;;5113617;28;20051;-62
2023/05/01 12:53:46;;;;;;;7.32;2.90;;;18.40;99.90;;;;;;5113164;28;20097;-62
2023/05/01 12:56:22;;;;;;;8.10;2.95;;;18.80;99.90;;;;;;5113342;27;20058;-62
2023/05/01 12:58:49;;;;;;;6.72;2.85;;;18.70;99.90;;;;;;5113309;28;20083;-63